sensor_id;sensor_type;location;lat;lon;timestamp;pressure;altitude;pressure_sealevel;temperature;humidity
15817;BME280;8009;50.070;8.232;2024-02-21T00:53:20;100792.31;;;12.00;59.67
15817;BME280;8009;50.070;8.232;2024-02-21T00:58:24;100804.16;;;12.37;58.58
15817;BME280;8009;50.070;8.232;2024-02-21T01:06:03;100807.44;;;11.62;60.63
15817;BME280;8009;50.070;8.232;2024-02-21T01:08:37;100810.22;;;12.40;58.33
15817;BME280;8009;50.070;8.232;2024-02-21T01:11:07;100793.91;;;11.89;58.96
15817;BME280;8009;50.070;8.232;2024-02-21T01:13:36;100804.19;;;11.84;59.66
15817;BME280;8009;50.070;8.232;2024-02-21T01:18:34;100817.41;;;11.62;60.66
15817;BME280;8009;50.070;8.232;2024-02-21T01:21:03;100810.00;;;12.18;58.28
15817;BME280;8009;50.070;8.232;2024-02-21T01:23:35;100816.59;;;11.06;62.02
15817;BME280;8009;50.070;8.232;2024-02-21T01:26:04;100793.75;;;11.78;59.67
15817;BME280;8009;50.070;8.232;2024-02-21T01:28:34;100794.28;;;12.23;58.81
15817;BME280;8009;50.070;8.232;2024-02-21T01:31:03;100803.47;;;12.20;58.20
15817;BME280;8009;50.070;8.232;2024-02-21T01:33:31;100784.34;;;12.36;58.07
15817;BME280;8009;50.070;8.232;2024-02-21T01:44:29;100767.47;;;11.80;59.44
15817;BME280;8009;50.070;8.232;2024-02-21T01:46:57;100764.00;;;11.38;61.00
15817;BME280;8009;50.070;8.232;2024-02-21T01:49:26;100768.56;;;11.90;59.66
15817;BME280;8009;50.070;8.232;2024-02-21T01:51:55;100755.69;;;11.94;58.51
15817;BME280;8009;50.070;8.232;2024-02-21T01:54:25;100746.22;;;12.14;58.52
15817;BME280;8009;50.070;8.232;2024-02-21T01:56:54;100738.50;;;12.20;58.62
15817;BME280;8009;50.070;8.232;2024-02-21T01:59:23;100739.72;;;12.29;58.69
15817;BME280;8009;50.070;8.232;2024-02-21T02:01:55;100748.78;;;12.15;59.05
15817;BME280;8009;50.070;8.232;2024-02-21T02:04:25;100746.09;;;12.15;58.98
15817;BME280;8009;50.070;8.232;2024-02-21T02:06:54;100741.00;;;12.11;58.83
15817;BME280;8009;50.070;8.232;2024-02-21T02:09:24;100739.69;;;12.04;59.37
15817;BME280;8009;50.070;8.232;2024-02-21T02:11:53;100726.81;;;12.20;57.92
15817;BME280;8009;50.070;8.232;2024-02-21T02:55:46;100700.28;;;12.00;59.46
15817;BME280;8009;50.070;8.232;2024-02-21T02:58:15;100700.06;;;12.15;58.81
15817;BME280;8009;50.070;8.232;2024-02-21T03:00:44;100696.28;;;12.18;58.34
15817;BME280;8009;50.070;8.232;2024-02-21T03:03:12;100706.38;;;11.63;59.50
15817;BME280;8009;50.070;8.232;2024-02-21T03:05:41;100698.78;;;11.95;59.97
15817;BME280;8009;50.070;8.232;2024-02-21T03:08:09;100691.41;;;11.85;59.63
15817;BME280;8009;50.070;8.232;2024-02-21T03:13:16;100679.84;;;11.95;59.49
15817;BME280;8009;50.070;8.232;2024-02-21T03:15:45;100671.06;;;12.17;58.93
15817;BME280;8009;50.070;8.232;2024-02-21T03:18:13;100666.19;;;12.10;59.62
15817;BME280;8009;50.070;8.232;2024-02-21T03:20:43;100661.31;;;12.15;58.84
15817;BME280;8009;50.070;8.232;2024-02-21T03:23:14;100658.16;;;12.21;58.76
15817;BME280;8009;50.070;8.232;2024-02-21T03:41:11;100639.94;;;12.23;58.61
15817;BME280;8009;50.070;8.232;2024-02-21T03:43:39;100641.06;;;12.08;58.46
15817;BME280;8009;50.070;8.232;2024-02-21T03:46:10;100639.66;;;12.15;57.86
15817;BME280;8009;50.070;8.232;2024-02-21T03:48:39;100634.09;;;11.78;58.68
15817;BME280;8009;50.070;8.232;2024-02-21T04:01:31;100653.16;;;12.28;57.08
15817;BME280;8009;50.070;8.232;2024-02-21T04:04:00;100640.97;;;11.97;58.32
15817;BME280;8009;50.070;8.232;2024-02-21T04:06:28;100642.78;;;12.09;58.00
15817;BME280;8009;50.070;8.232;2024-02-21T04:11:32;100639.69;;;12.02;57.99
15817;BME280;8009;50.070;8.232;2024-02-21T04:14:00;100635.63;;;12.20;57.57
15817;BME280;8009;50.070;8.232;2024-02-21T04:16:31;100617.13;;;12.02;58.42
15817;BME280;8009;50.070;8.232;2024-02-21T04:18:59;100613.91;;;11.84;59.01
15817;BME280;8009;50.070;8.232;2024-02-21T04:29:20;100604.69;;;11.99;58.13
15817;BME280;8009;50.070;8.232;2024-02-21T04:31:51;100590.88;;;12.28;57.18
15817;BME280;8009;50.070;8.232;2024-02-21T04:34:22;100602.41;;;11.80;58.76
15817;BME280;8009;50.070;8.232;2024-02-21T04:44:36;100582.06;;;12.00;57.97
15817;BME280;8009;50.070;8.232;2024-02-21T04:47:08;100585.06;;;11.83;58.82
15817;BME280;8009;50.070;8.232;2024-02-21T04:49:36;100573.00;;;11.76;58.87
15817;BME280;8009;50.070;8.232;2024-02-21T04:52:05;100562.84;;;11.41;60.00
15817;BME280;8009;50.070;8.232;2024-02-21T04:54:34;100567.03;;;11.58;59.43
15817;BME280;8009;50.070;8.232;2024-02-21T04:57:03;100572.31;;;11.59;59.51
15817;BME280;8009;50.070;8.232;2024-02-21T04:59:32;100579.59;;;11.33;60.65
15817;BME280;8009;50.070;8.232;2024-02-21T05:02:00;100570.50;;;11.34;60.19
15817;BME280;8009;50.070;8.232;2024-02-21T05:04:34;100581.09;;;11.76;59.15
15817;BME280;8009;50.070;8.232;2024-02-21T05:07:06;100576.97;;;11.83;58.74
15817;BME280;8009;50.070;8.232;2024-02-21T05:09:36;100571.16;;;11.76;59.34
15817;BME280;8009;50.070;8.232;2024-02-21T05:12:07;100575.91;;;11.60;59.15
15817;BME280;8009;50.070;8.232;2024-02-21T05:14:35;100586.66;;;11.87;58.82
15817;BME280;8009;50.070;8.232;2024-02-21T05:17:04;100593.56;;;11.53;59.81
15817;BME280;8009;50.070;8.232;2024-02-21T05:19:35;100599.91;;;11.26;60.44
15817;BME280;8009;50.070;8.232;2024-02-21T05:22:04;100593.63;;;10.73;62.16
15817;BME280;8009;50.070;8.232;2024-02-21T05:24:32;100594.38;;;11.15;60.92
15817;BME280;8009;50.070;8.232;2024-02-21T05:27:02;100584.34;;;11.68;59.12
15817;BME280;8009;50.070;8.232;2024-02-21T05:29:30;100590.16;;;11.75;58.77
15817;BME280;8009;50.070;8.232;2024-02-21T05:31:58;100580.53;;;11.70;59.98
15817;BME280;8009;50.070;8.232;2024-02-21T05:34:28;100576.34;;;11.54;59.23
15817;BME280;8009;50.070;8.232;2024-02-21T05:36:59;100575.34;;;11.67;58.96
15817;BME280;8009;50.070;8.232;2024-02-21T05:39:27;100567.03;;;11.32;60.28
15817;BME280;8009;50.070;8.232;2024-02-21T05:41:56;100568.53;;;11.36;60.20
15817;BME280;8009;50.070;8.232;2024-02-21T05:44:24;100560.66;;;11.46;59.38
15817;BME280;8009;50.070;8.232;2024-02-21T05:46:53;100553.50;;;11.58;59.10
15817;BME280;8009;50.070;8.232;2024-02-21T05:49:21;100553.50;;;11.58;59.35
15817;BME280;8009;50.070;8.232;2024-02-21T05:51:49;100551.56;;;11.60;58.81
15817;BME280;8009;50.070;8.232;2024-02-21T05:54:20;100559.69;;;11.34;59.62
15817;BME280;8009;50.070;8.232;2024-02-21T05:59:22;100553.72;;;11.16;60.56
15817;BME280;8009;50.070;8.232;2024-02-21T06:01:55;100545.06;;;11.24;60.27
15817;BME280;8009;50.070;8.232;2024-02-21T06:14:47;100551.34;;;10.72;61.80
15817;BME280;8009;50.070;8.232;2024-02-21T06:17:16;100535.97;;;11.25;59.52
15817;BME280;8009;50.070;8.232;2024-02-21T06:19:45;100541.91;;;11.17;59.95
15817;BME280;8009;50.070;8.232;2024-02-21T06:22:13;100537.16;;;11.21;59.58
15817;BME280;8009;50.070;8.232;2024-02-21T06:24:42;100536.22;;;11.22;59.91
15817;BME280;8009;50.070;8.232;2024-02-21T06:27:11;100527.88;;;11.25;59.50
15817;BME280;8009;50.070;8.232;2024-02-21T06:29:41;100527.44;;;11.06;60.38
15817;BME280;8009;50.070;8.232;2024-02-21T06:32:12;100520.72;;;10.98;60.48
15817;BME280;8009;50.070;8.232;2024-02-21T06:34:41;100520.28;;;11.05;60.12
15817;BME280;8009;50.070;8.232;2024-02-21T06:37:09;100508.72;;;10.90;60.73
15817;BME280;8009;50.070;8.232;2024-02-21T06:39:37;100510.56;;;11.02;59.79
15817;BME280;8009;50.070;8.232;2024-02-21T06:42:06;100508.84;;;11.14;59.75
15817;BME280;8009;50.070;8.232;2024-02-21T06:44:34;100511.25;;;11.18;59.59
15817;BME280;8009;50.070;8.232;2024-02-21T06:47:05;100518.66;;;10.77;61.10
15817;BME280;8009;50.070;8.232;2024-02-21T06:49:36;100518.88;;;10.86;60.67
15817;BME280;8009;50.070;8.232;2024-02-21T06:52:05;100515.53;;;11.21;59.78
15817;BME280;8009;50.070;8.232;2024-02-21T06:54:33;100523.25;;;11.14;60.22
15817;BME280;8009;50.070;8.232;2024-02-21T06:57:05;100516.84;;;11.15;60.48
15817;BME280;8009;50.070;8.232;2024-02-21T06:59:33;100514.19;;;10.76;61.15
15817;BME280;8009;50.070;8.232;2024-02-21T07:02:01;100524.09;;;11.28;59.27
15817;BME280;8009;50.070;8.232;2024-02-21T07:04:30;100528.41;;;11.05;60.18
15817;BME280;8009;50.070;8.232;2024-02-21T07:07:01;100523.56;;;11.35;59.32
15817;BME280;8009;50.070;8.232;2024-02-21T07:09:29;100524.53;;;11.34;59.03
15817;BME280;8009;50.070;8.232;2024-02-21T07:11:58;100508.53;;;11.31;59.28
15817;BME280;8009;50.070;8.232;2024-02-21T07:14:27;100502.25;;;11.31;59.54
15817;BME280;8009;50.070;8.232;2024-02-21T07:16:56;100512.41;;;11.53;59.32
15817;BME280;8009;50.070;8.232;2024-02-21T07:19:25;100518.03;;;11.50;59.22
15817;BME280;8009;50.070;8.232;2024-02-21T07:21:53;100520.53;;;11.40;58.69
15817;BME280;8009;50.070;8.232;2024-02-21T07:24:24;100519.66;;;11.65;58.93
15817;BME280;8009;50.070;8.232;2024-02-21T07:26:53;100519.28;;;11.82;58.30
15817;BME280;8009;50.070;8.232;2024-02-21T07:29:21;100516.00;;;11.53;58.95
15817;BME280;8009;50.070;8.232;2024-02-21T07:31:49;100509.56;;;11.92;57.97
15817;BME280;8009;50.070;8.232;2024-02-21T07:34:18;100509.34;;;11.95;57.74
15817;BME280;8009;50.070;8.232;2024-02-21T07:36:47;100513.34;;;11.90;57.65
15817;BME280;8009;50.070;8.232;2024-02-21T07:39:15;100507.06;;;11.89;57.66
15817;BME280;8009;50.070;8.232;2024-02-21T07:41:46;100510.06;;;11.98;58.34
15817;BME280;8009;50.070;8.232;2024-02-21T07:44:15;100501.47;;;12.16;57.04
15817;BME280;8009;50.070;8.232;2024-02-21T07:46:45;100501.84;;;11.99;57.27
15817;BME280;8009;50.070;8.232;2024-02-21T07:49:13;100516.41;;;11.21;58.94
15817;BME280;8009;50.070;8.232;2024-02-21T07:51:42;100514.56;;;10.96;59.77
15817;BME280;8009;50.070;8.232;2024-02-21T07:54:10;100510.25;;;11.32;59.04
15817;BME280;8009;50.070;8.232;2024-02-21T07:56:38;100504.75;;;11.34;59.84
15817;BME280;8009;50.070;8.232;2024-02-21T07:59:09;100492.63;;;11.14;59.59
15817;BME280;8009;50.070;8.232;2024-02-21T08:01:38;100495.94;;;11.68;58.22
15817;BME280;8009;50.070;8.232;2024-02-21T08:04:07;100492.91;;;11.73;58.89
15817;BME280;8009;50.070;8.232;2024-02-21T08:06:35;100493.19;;;11.94;58.38
15817;BME280;8009;50.070;8.232;2024-02-21T08:09:03;100488.00;;;11.78;57.93
15817;BME280;8009;50.070;8.232;2024-02-21T08:11:32;100470.72;;;12.17;56.73
15817;BME280;8009;50.070;8.232;2024-02-21T08:14:00;100473.44;;;12.17;57.18
15817;BME280;8009;50.070;8.232;2024-02-21T08:16:32;100477.31;;;11.89;57.40
15817;BME280;8009;50.070;8.232;2024-02-21T08:19:00;100480.34;;;12.22;57.16
15817;BME280;8009;50.070;8.232;2024-02-21T08:21:29;100468.59;;;12.10;56.92
15817;BME280;8009;50.070;8.232;2024-02-21T08:23:58;100465.47;;;12.03;56.90
15817;BME280;8009;50.070;8.232;2024-02-21T08:26:26;100463.03;;;11.75;57.35
15817;BME280;8009;50.070;8.232;2024-02-21T08:28:56;100458.22;;;12.04;56.78
15817;BME280;8009;50.070;8.232;2024-02-21T08:31:26;100459.06;;;12.04;57.80
15817;BME280;8009;50.070;8.232;2024-02-21T08:36:35;100455.19;;;11.83;57.83
15817;BME280;8009;50.070;8.232;2024-02-21T08:39:03;100461.03;;;11.53;57.33
15817;BME280;8009;50.070;8.232;2024-02-21T08:44:08;100455.50;;;11.54;58.41
15817;BME280;8009;50.070;8.232;2024-02-21T08:46:36;100463.72;;;11.65;58.28
15817;BME280;8009;50.070;8.232;2024-02-21T08:49:05;100456.56;;;11.64;57.71
15817;BME280;8009;50.070;8.232;2024-02-21T08:51:37;100461.34;;;11.61;57.76
15817;BME280;8009;50.070;8.232;2024-02-21T08:54:05;100450.22;;;11.53;57.50
15817;BME280;8009;50.070;8.232;2024-02-21T08:56:34;100441.59;;;12.32;55.88
15817;BME280;8009;50.070;8.232;2024-02-21T08:59:04;100433.38;;;11.86;57.00
15817;BME280;8009;50.070;8.232;2024-02-21T09:01:34;100429.06;;;12.07;55.68
15817;BME280;8009;50.070;8.232;2024-02-21T09:04:05;100426.47;;;12.30;55.80
15817;BME280;8009;50.070;8.232;2024-02-21T09:06:33;100420.94;;;11.83;56.68
15817;BME280;8009;50.070;8.232;2024-02-21T09:09:07;100418.25;;;11.70;57.33
15817;BME280;8009;50.070;8.232;2024-02-21T09:11:38;100409.25;;;11.70;56.28
15817;BME280;8009;50.070;8.232;2024-02-21T09:14:06;100415.53;;;11.70;55.80
15817;BME280;8009;50.070;8.232;2024-02-21T09:16:35;100413.78;;;12.30;54.93
15817;BME280;8009;50.070;8.232;2024-02-21T09:19:04;100414.03;;;12.27;54.76
15817;BME280;8009;50.070;8.232;2024-02-21T09:21:36;100407.03;;;11.64;56.43
15817;BME280;8009;50.070;8.232;2024-02-21T09:24:09;100395.50;;;12.10;55.78
15817;BME280;8009;50.070;8.232;2024-02-21T09:26:38;100393.69;;;11.98;55.35
15817;BME280;8009;50.070;8.232;2024-02-21T09:29:06;100390.06;;;12.34;54.26
15817;BME280;8009;50.070;8.232;2024-02-21T09:31:35;100398.16;;;12.69;53.46
15817;BME280;8009;50.070;8.232;2024-02-21T09:34:04;100395.25;;;11.52;56.73
15817;BME280;8009;50.070;8.232;2024-02-21T09:36:32;100391.38;;;12.63;61.75
15817;BME280;8009;50.070;8.232;2024-02-21T09:39:00;100387.81;;;12.28;55.31
15817;BME280;8009;50.070;8.232;2024-02-21T09:41:34;100387.88;;;12.15;55.04
15817;BME280;8009;50.070;8.232;2024-02-21T09:44:05;100395.25;;;12.13;55.63
15817;BME280;8009;50.070;8.232;2024-02-21T09:46:39;100385.44;;;11.88;55.38
15817;BME280;8009;50.070;8.232;2024-02-21T09:49:18;100385.66;;;11.85;56.09
15817;BME280;8009;50.070;8.232;2024-02-21T09:51:50;100378.72;;;12.29;54.85
15817;BME280;8009;50.070;8.232;2024-02-21T09:54:20;100372.59;;;12.38;54.56
15817;BME280;8009;50.070;8.232;2024-02-21T09:56:52;100365.16;;;12.17;57.68
15817;BME280;8009;50.070;8.232;2024-02-21T09:59:20;100362.44;;;12.17;56.79
15817;BME280;8009;50.070;8.232;2024-02-21T10:01:49;100355.91;;;12.89;54.70
15817;BME280;8009;50.070;8.232;2024-02-21T10:04:17;100356.56;;;11.76;55.10
15817;BME280;8009;50.070;8.232;2024-02-21T10:06:46;100360.34;;;12.56;53.98
15817;BME280;8009;50.070;8.232;2024-02-21T10:09:22;100356.41;;;12.14;53.61
15817;BME280;8009;50.070;8.232;2024-02-21T10:11:56;100349.47;;;12.45;53.58
15817;BME280;8009;50.070;8.232;2024-02-21T10:14:35;100347.69;;;12.22;56.12
15817;BME280;8009;50.070;8.232;2024-02-21T10:17:04;100359.59;;;12.19;54.63
15817;BME280;8009;50.070;8.232;2024-02-21T10:19:34;100343.69;;;12.03;54.59
15817;BME280;8009;50.070;8.232;2024-02-21T10:22:04;100336.81;;;12.57;53.51
15817;BME280;8009;50.070;8.232;2024-02-21T10:24:33;100331.06;;;12.95;51.82
15817;BME280;8009;50.070;8.232;2024-02-21T10:27:08;100327.22;;;12.64;53.47
15817;BME280;8009;50.070;8.232;2024-02-21T10:29:37;100322.91;;;12.61;54.04
15817;BME280;8009;50.070;8.232;2024-02-21T10:32:06;100328.03;;;12.42;54.10
15817;BME280;8009;50.070;8.232;2024-02-21T10:34:37;100323.00;;;12.37;55.24
15817;BME280;8009;50.070;8.232;2024-02-21T10:37:06;100311.69;;;12.55;53.23
15817;BME280;8009;50.070;8.232;2024-02-21T10:39:37;100309.56;;;12.47;53.62
15817;BME280;8009;50.070;8.232;2024-02-21T10:42:10;100313.16;;;13.15;52.49
15817;BME280;8009;50.070;8.232;2024-02-21T10:44:40;100306.75;;;12.37;56.11
15817;BME280;8009;50.070;8.232;2024-02-21T10:47:10;100312.53;;;12.66;52.87
15817;BME280;8009;50.070;8.232;2024-02-21T10:49:40;100302.31;;;12.59;52.53
15817;BME280;8009;50.070;8.232;2024-02-21T10:52:14;100296.19;;;13.13;51.55
15817;BME280;8009;50.070;8.232;2024-02-21T10:54:48;100294.22;;;12.81;54.11
15817;BME280;8009;50.070;8.232;2024-02-21T10:57:24;100292.94;;;13.41;51.04
15817;BME280;8009;50.070;8.232;2024-02-21T10:59:53;100294.44;;;13.01;50.92
15817;BME280;8009;50.070;8.232;2024-02-21T11:02:22;100286.41;;;12.32;53.67
15817;BME280;8009;50.070;8.232;2024-02-21T11:04:52;100278.19;;;12.44;54.02
15817;BME280;8009;50.070;8.232;2024-02-21T11:07:22;100283.50;;;12.68;51.38
15817;BME280;8009;50.070;8.232;2024-02-21T11:09:51;100273.75;;;12.43;52.45
15817;BME280;8009;50.070;8.232;2024-02-21T11:12:23;100269.56;;;12.51;53.07
15817;BME280;8009;50.070;8.232;2024-02-21T11:15:03;100261.88;;;13.34;51.04
15817;BME280;8009;50.070;8.232;2024-02-21T11:17:32;100263.66;;;13.13;51.04
15817;BME280;8009;50.070;8.232;2024-02-21T11:20:11;100255.00;;;13.08;51.12
15817;BME280;8009;50.070;8.232;2024-02-21T11:22:41;100248.75;;;12.85;50.44
15817;BME280;8009;50.070;8.232;2024-02-21T11:25:10;100256.06;;;13.39;51.89
15817;BME280;8009;50.070;8.232;2024-02-21T11:27:45;100243.91;;;13.22;51.51
15817;BME280;8009;50.070;8.232;2024-02-21T11:30:14;100241.97;;;13.02;51.42
15817;BME280;8009;50.070;8.232;2024-02-21T11:32:50;100230.00;;;13.04;50.98
15817;BME280;8009;50.070;8.232;2024-02-21T11:35:19;100226.59;;;12.80;51.60
15817;BME280;8009;50.070;8.232;2024-02-21T11:37:48;100219.50;;;13.33;50.60
15817;BME280;8009;50.070;8.232;2024-02-21T11:40:17;100219.34;;;13.67;50.92
15817;BME280;8009;50.070;8.232;2024-02-21T11:42:49;100204.31;;;13.31;54.54
15817;BME280;8009;50.070;8.232;2024-02-21T11:45:20;100207.69;;;13.23;51.06
15817;BME280;8009;50.070;8.232;2024-02-21T11:50:19;100206.25;;;13.72;49.21
15817;BME280;8009;50.070;8.232;2024-02-21T11:52:54;100185.63;;;14.32;48.31
15817;BME280;8009;50.070;8.232;2024-02-21T11:55:22;100184.16;;;13.98;50.08
15817;BME280;8009;50.070;8.232;2024-02-21T11:57:55;100178.25;;;13.72;51.07
15817;BME280;8009;50.070;8.232;2024-02-21T12:00:27;100177.97;;;13.22;51.37
15817;BME280;8009;50.070;8.232;2024-02-21T12:02:55;100155.47;;;13.84;49.78
15817;BME280;8009;50.070;8.232;2024-02-21T12:05:27;100149.56;;;14.30;48.77
15817;BME280;8009;50.070;8.232;2024-02-21T12:07:58;100148.56;;;13.70;49.99
15817;BME280;8009;50.070;8.232;2024-02-21T12:10:27;100143.47;;;14.07;49.88
15817;BME280;8009;50.070;8.232;2024-02-21T12:13:07;100129.59;;;14.31;48.99
15817;BME280;8009;50.070;8.232;2024-02-21T12:15:38;100134.19;;;14.41;49.81
15817;BME280;8009;50.070;8.232;2024-02-21T12:18:07;100128.53;;;14.23;49.65
15817;BME280;8009;50.070;8.232;2024-02-21T12:20:35;100119.69;;;14.30;49.18
15817;BME280;8009;50.070;8.232;2024-02-21T12:23:09;100109.94;;;14.18;50.01
15817;BME280;8009;50.070;8.232;2024-02-21T12:25:38;100111.38;;;13.92;51.47
15817;BME280;8009;50.070;8.232;2024-02-21T12:28:10;100102.06;;;14.15;50.44
15817;BME280;8009;50.070;8.232;2024-02-21T12:30:38;100104.13;;;13.71;51.14
15817;BME280;8009;50.070;8.232;2024-02-21T12:33:08;100097.19;;;13.57;51.73
15817;BME280;8009;50.070;8.232;2024-02-21T12:35:40;100090.25;;;13.64;51.40
15817;BME280;8009;50.070;8.232;2024-02-21T12:38:08;100079.63;;;14.13;50.17
15817;BME280;8009;50.070;8.232;2024-02-21T12:40:36;100067.31;;;14.09;50.12
15817;BME280;8009;50.070;8.232;2024-02-21T12:43:05;100077.09;;;14.21;50.62
15817;BME280;8009;50.070;8.232;2024-02-21T12:45:36;100079.94;;;14.20;52.68
15817;BME280;8009;50.070;8.232;2024-02-21T12:48:04;100069.66;;;13.93;53.31
15817;BME280;8009;50.070;8.232;2024-02-21T12:50:33;100072.78;;;14.19;51.19
15817;BME280;8009;50.070;8.232;2024-02-21T12:53:01;100070.84;;;13.69;51.61
15817;BME280;8009;50.070;8.232;2024-02-21T12:55:30;100062.47;;;14.12;50.78
15817;BME280;8009;50.070;8.232;2024-02-21T12:58:03;100051.56;;;13.93;54.11
15817;BME280;8009;50.070;8.232;2024-02-21T13:00:32;100050.22;;;13.87;51.59
15817;BME280;8009;50.070;8.232;2024-02-21T13:03:04;100034.34;;;13.31;53.19
15817;BME280;8009;50.070;8.232;2024-02-21T13:05:32;100035.94;;;13.85;51.60
15817;BME280;8009;50.070;8.232;2024-02-21T13:08:02;100017.66;;;13.57;51.38
15817;BME280;8009;50.070;8.232;2024-02-21T13:10:30;100018.25;;;13.91;50.76
15817;BME280;8009;50.070;8.232;2024-02-21T13:12:59;100004.06;;;13.26;52.67
15817;BME280;8009;50.070;8.232;2024-02-21T13:15:27;100012.31;;;13.46;52.84
15817;BME280;8009;50.070;8.232;2024-02-21T13:17:56;100012.31;;;13.76;51.27
15817;BME280;8009;50.070;8.232;2024-02-21T13:20:30;99997.53;;;13.29;52.70
15817;BME280;8009;50.070;8.232;2024-02-21T13:22:58;100005.78;;;13.88;51.83
15817;BME280;8009;50.070;8.232;2024-02-21T13:25:27;99986.25;;;13.95;51.74
15817;BME280;8009;50.070;8.232;2024-02-21T13:27:56;99981.72;;;14.05;51.50
15817;BME280;8009;50.070;8.232;2024-02-21T13:30:24;99970.81;;;13.24;52.96
15817;BME280;8009;50.070;8.232;2024-02-21T13:32:53;99979.38;;;13.90;51.31
15817;BME280;8009;50.070;8.232;2024-02-21T13:35:22;99965.00;;;14.09;51.33
15817;BME280;8009;50.070;8.232;2024-02-21T13:37:53;99964.75;;;14.12;50.85
15817;BME280;8009;50.070;8.232;2024-02-21T13:40:23;99951.75;;;14.26;50.38
15817;BME280;8009;50.070;8.232;2024-02-21T13:42:53;99958.88;;;14.17;51.43
15817;BME280;8009;50.070;8.232;2024-02-21T13:45:22;99948.44;;;14.22;52.85
15817;BME280;8009;50.070;8.232;2024-02-21T13:47:50;99937.97;;;13.48;52.38
15817;BME280;8009;50.070;8.232;2024-02-21T13:50:21;99939.41;;;13.52;52.20
15817;BME280;8009;50.070;8.232;2024-02-21T13:52:52;99924.13;;;13.51;52.48
15817;BME280;8009;50.070;8.232;2024-02-21T13:55:21;99922.53;;;13.89;51.67
15817;BME280;8009;50.070;8.232;2024-02-21T13:57:51;99919.69;;;13.50;52.25
15817;BME280;8009;50.070;8.232;2024-02-21T14:00:20;99910.00;;;13.57;52.39
15817;BME280;8009;50.070;8.232;2024-02-21T14:02:49;99906.94;;;13.41;52.20
15817;BME280;8009;50.070;8.232;2024-02-21T14:05:17;99912.59;;;13.59;52.45
15817;BME280;8009;50.070;8.232;2024-02-21T14:07:46;99911.31;;;13.63;51.98
15817;BME280;8009;50.070;8.232;2024-02-21T14:10:17;99907.84;;;13.21;52.13
15817;BME280;8009;50.070;8.232;2024-02-21T14:12:46;99898.34;;;13.67;51.88
15817;BME280;8009;50.070;8.232;2024-02-21T14:15:14;99885.63;;;13.77;51.15
15817;BME280;8009;50.070;8.232;2024-02-21T14:17:44;99875.25;;;13.82;51.27
15817;BME280;8009;50.070;8.232;2024-02-21T14:20:15;99863.25;;;14.33;49.62
15817;BME280;8009;50.070;8.232;2024-02-21T14:22:44;99859.31;;;13.48;52.03
15817;BME280;8009;50.070;8.232;2024-02-21T14:25:10;99865.78;;;13.67;50.44
15817;BME280;8009;50.070;8.232;2024-02-21T14:27:41;99859.09;;;14.00;49.89
15817;BME280;8009;50.070;8.232;2024-02-21T14:30:10;99856.25;;;13.92;50.34
15817;BME280;8009;50.070;8.232;2024-02-21T14:32:40;99862.13;;;14.06;50.02
15817;BME280;8009;50.070;8.232;2024-02-21T14:35:12;99853.03;;;13.48;51.82
15817;BME280;8009;50.070;8.232;2024-02-21T14:37:41;99840.97;;;14.39;49.68
15817;BME280;8009;50.070;8.232;2024-02-21T14:40:10;99838.19;;;13.52;51.10
15817;BME280;8009;50.070;8.232;2024-02-21T14:42:42;99827.13;;;14.13;49.28
15817;BME280;8009;50.070;8.232;2024-02-21T14:45:11;99827.38;;;13.71;50.68
15817;BME280;8009;50.070;8.232;2024-02-21T14:47:40;99829.94;;;13.73;50.89
15817;BME280;8009;50.070;8.232;2024-02-21T14:50:09;99804.25;;;13.86;49.77
15817;BME280;8009;50.070;8.232;2024-02-21T14:52:38;99800.53;;;13.97;49.86
15817;BME280;8009;50.070;8.232;2024-02-21T14:55:14;99802.66;;;13.64;49.78
15817;BME280;8009;50.070;8.232;2024-02-21T14:57:48;99780.25;;;13.72;49.54
15817;BME280;8009;50.070;8.232;2024-02-21T15:00:21;99782.66;;;13.85;49.65
15817;BME280;8009;50.070;8.232;2024-02-21T15:02:56;99778.25;;;13.94;48.84
15817;BME280;8009;50.070;8.232;2024-02-21T15:05:26;99780.88;;;13.35;49.51
15817;BME280;8009;50.070;8.232;2024-02-21T15:07:59;99784.25;;;13.18;49.93
15817;BME280;8009;50.070;8.232;2024-02-21T15:10:29;99770.75;;;12.97;52.62
15817;BME280;8009;50.070;8.232;2024-02-21T15:13:00;99765.38;;;13.57;49.82
15817;BME280;8009;50.070;8.232;2024-02-21T15:15:36;99735.22;;;13.31;49.42
15817;BME280;8009;50.070;8.232;2024-02-21T15:18:07;99730.09;;;13.96;48.12
15817;BME280;8009;50.070;8.232;2024-02-21T15:20:37;99729.09;;;13.29;50.45
15817;BME280;8009;50.070;8.232;2024-02-21T15:23:05;99731.31;;;13.14;50.15
15817;BME280;8009;50.070;8.232;2024-02-21T15:25:33;99729.22;;;13.27;50.86
15817;BME280;8009;50.070;8.232;2024-02-21T15:28:05;99717.94;;;14.09;48.08
15817;BME280;8009;50.070;8.232;2024-02-21T15:30:34;99722.13;;;13.75;49.91
15817;BME280;8009;50.070;8.232;2024-02-21T15:33:02;99723.22;;;13.43;49.66
15817;BME280;8009;50.070;8.232;2024-02-21T15:35:31;99723.81;;;13.56;48.95
15817;BME280;8009;50.070;8.232;2024-02-21T15:37:59;99708.94;;;13.99;48.80
15817;BME280;8009;50.070;8.232;2024-02-21T15:40:28;99715.34;;;14.08;48.60
15817;BME280;8009;50.070;8.232;2024-02-21T15:43:08;99718.09;;;13.50;49.86
15817;BME280;8009;50.070;8.232;2024-02-21T15:45:37;99719.91;;;14.27;47.50
15817;BME280;8009;50.070;8.232;2024-02-21T15:48:06;99703.72;;;13.59;49.19
15817;BME280;8009;50.070;8.232;2024-02-21T15:50:35;99698.84;;;13.62;49.74
15817;BME280;8009;50.070;8.232;2024-02-21T15:53:03;99691.22;;;13.17;51.36
15817;BME280;8009;50.070;8.232;2024-02-21T15:55:32;99692.16;;;12.87;52.23
15817;BME280;8009;50.070;8.232;2024-02-21T15:58:00;99691.41;;;13.35;50.40
15817;BME280;8009;50.070;8.232;2024-02-21T16:00:32;99694.41;;;13.32;49.73
15817;BME280;8009;50.070;8.232;2024-02-21T16:03:00;99688.25;;;13.69;49.56
15817;BME280;8009;50.070;8.232;2024-02-21T16:05:29;99678.13;;;13.42;50.43
15817;BME280;8009;50.070;8.232;2024-02-21T16:07:57;99673.53;;;13.13;49.82
15817;BME280;8009;50.070;8.232;2024-02-21T16:10:25;99659.31;;;13.40;48.76
15817;BME280;8009;50.070;8.232;2024-02-21T16:12:54;99649.19;;;14.19;48.36
15817;BME280;8009;50.070;8.232;2024-02-21T16:15:24;99630.31;;;13.31;50.10